Time;durP1;ratioP1;P1;durP2;ratioP2;P2;SDS_P1;SDS_P2;PMS_P1;PMS_P2;Temp;Humidity;BMP_temperature;BMP_pressure;BME280_temperature;BME280_humidity;BME280_pressure;Samples;Min_cycle;Max_cycle;Signal;HPM_P1;HPM_P2
2023/08/26 00:01:36;;;;;;;17.02;11.90;;;20.60;99.90;;;;;;5058732;28;20048;-78
2023/08/26 00:07:11;;;;;;;12.23;10.93;;;20.50;99.90;;;;;;5046740;28;20052;-76
2023/08/26 00:18:15;;;;;;;16.42;12.32;;;20.40;99.90;;;;;;5073292;28;20068;-76
2023/08/26 00:21:22;;;;;;;13.73;12.25;;;20.30;99.90;;;;;;5072967;28;20037;-75
2023/08/26 00:26:58;;;;;;;13.50;11.77;;;20.30;99.90;;;;;;5073290;28;20048;-77
2023/08/26 00:34:58;;;;;;;17.40;11.80;;;20.30;99.90;;;;;;5055467;28;20048;-77
2023/08/26 00:37:37;;;;;;;13.65;11.43;;;20.30;99.90;;;;;;5054620;28;20048;-76
2023/08/26 00:43:26;;;;;;;17.58;11.73;;;20.20;99.90;;;;;;5061434;28;20048;-77
2023/08/26 00:45:55;;;;;;;14.18;11.20;;;20.20;99.90;;;;;;5062200;28;20045;-77
2023/08/26 00:48:23;;;;;;;15.38;11.48;;;20.20;99.90;;;;;;5027222;28;20041;-78
2023/08/26 00:50:56;;;;;;;15.27;11.80;;;20.20;99.90;;;;;;5051721;28;20044;-75
2023/08/26 00:53:31;;;;;;;;;;;20.10;99.90;;;;;;5079005;28;20037;-77
2023/08/26 00:56:11;;;;;;;12.90;11.57;;;20.10;99.90;;;;;;5063865;28;19920;-76
2023/08/26 00:58:42;;;;;;;12.35;11.15;;;20.10;99.90;;;;;;5076074;28;20045;-77
2023/08/26 01:01:17;;;;;;;17.13;11.57;;;20.00;99.90;;;;;;5051536;28;20043;-76
2023/08/26 01:06:44;;;;;;;14.20;11.88;;;19.90;99.90;;;;;;5062141;28;20064;-77
2023/08/26 01:09:17;;;;;;;13.30;11.85;;;20.00;99.90;;;;;;5073592;28;20050;-77
2023/08/26 01:20:14;;;;;;;30.88;23.55;;;19.90;99.90;;;;;;5062603;28;20037;-78
2023/08/26 01:22:54;;;;;;;15.90;12.17;;;19.90;99.90;;;;;;5071457;28;20045;-76
2023/08/26 01:25:30;;;;;;;16.20;13.00;;;19.90;99.90;;;;;;5061753;28;20044;-77
2023/08/26 01:28:00;;;;;;;12.98;11.60;;;19.80;99.90;;;;;;5076589;28;20082;-77
2023/08/26 01:30:29;;;;;;;15.48;12.43;;;19.70;99.90;;;;;;5070756;28;20033;-81
2023/08/26 01:33:03;;;;;;;14.43;11.98;;;19.60;99.90;;;;;;5066878;28;20040;-76
2023/08/26 01:35:37;;;;;;;15.82;12.63;;;19.60;99.90;;;;;;5066979;28;20049;-76
2023/08/26 01:38:09;;;;;;;14.20;12.65;;;19.50;99.90;;;;;;5064925;28;20041;-77
2023/08/26 01:40:56;;;;;;;15.37;13.00;;;19.40;99.90;;;;;;5083344;28;20028;-75
2023/08/26 01:43:25;;;;;;;13.35;11.70;;;19.30;99.90;;;;;;5079061;28;20044;-76
2023/08/26 01:49:40;;;;;;;16.45;13.27;;;19.40;99.90;;;;;;5042991;25;20036;-78
2023/08/26 01:52:07;;;;;;;14.50;12.13;;;19.40;99.90;;;;;;5061041;28;20044;-76
2023/08/26 01:54:49;;;;;;;13.55;12.15;;;19.50;99.90;;;;;;5071500;28;20029;-77
2023/08/26 02:00:47;;;;;;;12.98;11.57;;;19.60;99.90;;;;;;5071428;28;20029;-77
2023/08/26 02:16:07;;;;;;;17.70;14.45;;;19.40;99.90;;;;;;5077298;28;20287;-78
2023/08/26 02:18:37;;;;;;;14.95;13.15;;;19.40;99.90;;;;;;5080018;28;20068;-79
2023/08/26 02:21:04;;;;;;;15.30;13.43;;;19.40;99.90;;;;;;5072419;28;20120;-78
2023/08/26 02:23:32;;;;;;;15.15;11.48;;;19.40;99.90;;;;;;5071189;28;20092;-77
2023/08/26 02:25:59;;;;;;;14.13;12.63;;;19.40;99.90;;;;;;5073679;28;20408;-77
2023/08/26 02:28:32;;;;;;;14.43;12.40;;;19.40;99.90;;;;;;5073364;28;20021;-79
2023/08/26 02:34:10;;;;;;;16.38;12.52;;;19.30;99.90;;;;;;5094893;28;20037;-79
2023/08/26 02:49:16;;;;;;;14.35;12.05;;;19.30;99.90;;;;;;5079479;28;20048;-77
2023/08/26 02:54:54;;;;;;;14.85;13.07;;;19.30;99.90;;;;;;5129881;22;20051;-77
2023/08/26 03:00:34;;;;;;;17.95;14.13;;;19.30;99.90;;;;;;5100839;28;20100;-79
2023/08/26 03:03:01;;;;;;;15.50;13.23;;;19.30;99.90;;;;;;5084349;28;20043;-78
2023/08/26 03:08:35;;;;;;;13.90;12.48;;;19.20;99.90;;;;;;5040963;28;20128;-85
2023/08/26 03:11:04;;;;;;;14.50;12.80;;;19.20;99.90;;;;;;5033396;28;20055;-83
2023/08/26 03:13:32;;;;;;;14.52;12.95;;;19.20;99.90;;;;;;5037928;28;20044;-83
2023/08/26 03:16:07;;;;;;;19.30;17.17;;;19.10;99.90;;;;;;5044664;28;20459;-84
2023/08/26 03:18:35;;;;;;;20.88;16.85;;;19.10;99.90;;;;;;5047019;28;20041;-84
2023/08/26 03:21:06;;;;;;;15.73;14.18;;;19.10;99.90;;;;;;5039921;28;20045;-84
2023/08/26 03:23:35;;;;;;;15.85;13.43;;;19.10;99.90;;;;;;5049006;28;20053;-83
2023/08/26 03:26:03;;;;;;;14.73;13.13;;;19.10;99.90;;;;;;5038529;28;20120;-83
2023/08/26 03:28:30;;;;;;;15.25;13.63;;;19.10;99.90;;;;;;5045685;28;20041;-83
2023/08/26 03:31:05;;;;;;;15.27;13.68;;;19.10;99.90;;;;;;5028578;28;20509;-84
2023/08/26 03:33:33;;;;;;;17.10;14.00;;;19.00;99.90;;;;;;5056305;28;20135;-84
2023/08/26 03:36:04;;;;;;;15.50;13.40;;;19.00;99.90;;;;;;5037317;28;20041;-84
2023/08/26 03:38:32;;;;;;;15.32;13.63;;;19.00;99.90;;;;;;5045633;28;20456;-84
2023/08/26 03:41:03;;;;;;;15.85;13.82;;;19.00;99.90;;;;;;5063136;28;20071;-83
2023/08/26 03:43:31;;;;;;;15.43;13.73;;;19.00;99.90;;;;;;5044768;28;20068;-84
2023/08/26 03:46:00;;;;;;;16.35;13.32;;;19.00;99.90;;;;;;5037461;28;20140;-84
2023/08/26 03:48:27;;;;;;;15.90;13.85;;;19.00;99.90;;;;;;5063510;28;20053;-84
2023/08/26 03:50:56;;;;;;;18.70;13.70;;;19.10;99.90;;;;;;5041432;28;20500;-84
2023/08/26 03:53:23;;;;;;;17.30;13.73;;;19.00;99.90;;;;;;5049017;28;20041;-84
2023/08/26 03:55:51;;;;;;;17.00;12.80;;;19.00;99.90;;;;;;5048449;28;20563;-85
2023/08/26 03:58:20;;;;;;;13.70;12.32;;;18.90;99.90;;;;;;5048407;28;20401;-84
2023/08/26 04:00:49;;;;;;;19.25;13.15;;;19.00;99.90;;;;;;5042995;28;20045;-83
2023/08/26 04:03:17;;;;;;;15.27;13.20;;;18.90;99.90;;;;;;5051571;28;20083;-84
2023/08/26 04:05:44;;;;;;;14.48;12.90;;;18.90;99.90;;;;;;5040092;28;20041;-84
2023/08/26 04:08:12;;;;;;;14.45;12.50;;;18.90;99.90;;;;;;5065374;28;20136;-83
2023/08/26 04:10:40;;;;;;;17.70;13.38;;;18.90;99.90;;;;;;5042523;28;20061;-83
2023/08/26 04:13:21;;;;;;;14.45;12.75;;;18.90;99.90;;;;;;5044513;28;20064;-84
2023/08/26 04:15:48;;;;;;;15.35;12.40;;;18.90;99.90;;;;;;5039953;28;20044;-83
2023/08/26 04:18:16;;;;;;;16.70;13.23;;;19.00;99.90;;;;;;5040982;28;20045;-83
2023/08/26 04:20:43;;;;;;;17.08;13.00;;;18.90;99.90;;;;;;5048617;28;20037;-84
2023/08/26 04:23:11;;;;;;;18.85;13.05;;;18.90;99.90;;;;;;5040424;28;20508;-85
2023/08/26 04:25:39;;;;;;;17.70;13.45;;;18.90;99.90;;;;;;5041607;28;20167;-84
2023/08/26 04:28:07;;;;;;;16.35;12.73;;;18.90;99.90;;;;;;5040691;28;20117;-84
2023/08/26 04:30:36;;;;;;;16.83;12.75;;;18.90;99.90;;;;;;5041512;28;20037;-85
2023/08/26 04:33:05;;;;;;;13.63;12.20;;;19.10;99.90;;;;;;5040501;28;20051;-83
2023/08/26 04:35:33;;;;;;;13.30;11.90;;;19.30;99.90;;;;;;5040756;28;20539;-85
2023/08/26 04:38:00;;;;;;;14.63;11.93;;;19.40;99.90;;;;;;5041457;28;20033;-84
2023/08/26 04:40:29;;;;;;;15.75;12.38;;;19.50;99.90;;;;;;5040462;28;20051;-83
2023/08/26 04:42:57;;;;;;;15.15;12.00;;;19.60;99.90;;;;;;5038326;28;20041;-84
2023/08/26 04:45:26;;;;;;;16.05;12.05;;;19.70;99.90;;;;;;5039129;28;20056;-84
2023/08/26 04:47:54;;;;;;;13.70;12.00;;;19.80;99.90;;;;;;5046979;28;20045;-84
2023/08/26 04:50:22;;;;;;;17.33;11.45;;;20.00;99.90;;;;;;5065265;28;20102;-85
2023/08/26 04:52:50;;;;;;;14.35;11.52;;;20.10;99.90;;;;;;5037951;28;20132;-84
2023/08/26 04:55:19;;;;;;;15.20;11.73;;;20.30;99.90;;;;;;5041633;28;20086;-84
2023/08/26 04:57:48;;;;;;;13.73;11.75;;;20.30;99.90;;;;;;5040650;28;20139;-84
2023/08/26 05:00:17;;;;;;;18.55;11.82;;;20.40;99.90;;;;;;5041849;28;20041;-85
2023/08/26 05:02:44;;;;;;;19.63;11.63;;;20.40;99.90;;;;;;5046868;28;20045;-84
2023/08/26 05:05:14;;;;;;;16.58;12.90;;;20.40;99.90;;;;;;5039485;28;20071;-85
2023/08/26 05:07:41;;;;;;;14.38;11.63;;;20.40;99.90;;;;;;5039912;28;20055;-83
2023/08/26 05:10:09;;;;;;;13.95;11.38;;;20.50;99.90;;;;;;5058726;28;20045;-84
2023/08/26 05:12:38;;;;;;;16.83;11.05;;;20.70;99.90;;;;;;5041752;28;20080;-85
2023/08/26 05:15:07;;;;;;;16.65;11.50;;;20.80;99.90;;;;;;5047031;28;20072;-84
2023/08/26 05:17:35;;;;;;;16.35;11.23;;;20.90;99.90;;;;;;5040579;28;20041;-85
2023/08/26 05:20:04;;;;;;;17.83;14.38;;;21.00;99.90;;;;;;5047507;28;20496;-86
2023/08/26 05:22:32;;;;;;;20.13;13.40;;;21.20;99.90;;;;;;5039416;28;20045;-84
2023/08/26 05:25:01;;;;;;;13.68;12.20;;;21.40;99.90;;;;;;5040460;28;20068;-84
2023/08/26 05:27:29;;;;;;;17.08;11.88;;;21.50;99.90;;;;;;5042566;28;20114;-84
2023/08/26 05:29:56;;;;;;;22.05;13.82;;;21.60;99.90;;;;;;5041395;28;20183;-85
2023/08/26 05:32:25;;;;;;;16.67;12.25;;;21.70;99.90;;;;;;5041998;28;20098;-83
2023/08/26 05:34:53;;;;;;;22.00;15.38;;;21.80;99.90;;;;;;5041838;28;20049;-85
2023/08/26 05:37:20;;;;;;;21.38;11.85;;;22.00;99.90;;;;;;5064921;28;20090;-84
2023/08/26 05:39:49;;;;;;;15.38;11.13;;;22.30;99.90;;;;;;5048433;28;20065;-86
2023/08/26 05:42:16;;;;;;;16.15;11.93;;;22.50;99.90;;;;;;5042352;28;20107;-84
2023/08/26 05:44:44;;;;;;;14.88;12.20;;;22.70;99.90;;;;;;5040521;28;20073;-85
2023/08/26 05:47:11;;;;;;;16.70;11.88;;;22.80;99.90;;;;;;5040909;28;20049;-84
2023/08/26 05:49:39;;;;;;;23.75;14.85;;;23.00;99.90;;;;;;5039119;28;20141;-84
2023/08/26 05:52:07;;;;;;;17.17;14.52;;;23.20;99.90;;;;;;5037931;28;20507;-84
2023/08/26 05:54:35;;;;;;;20.02;17.02;;;23.50;99.90;;;;;;5041848;28;20510;-85
2023/08/26 05:57:06;;;;;;;19.95;13.75;;;23.80;99.90;;;;;;5039381;28;20468;-86
2023/08/26 05:59:34;;;;;;;15.93;12.73;;;23.90;99.90;;;;;;5041765;28;20355;-85
2023/08/26 06:02:01;;;;;;;12.38;11.10;;;24.10;99.90;;;;;;5039361;28;20098;-84
2023/08/26 06:04:29;;;;;;;15.63;11.93;;;24.10;99.90;;;;;;5040264;28;20049;-85
2023/08/26 06:06:57;;;;;;;13.48;11.00;;;24.20;99.90;;;;;;5037995;28;20049;-84
2023/08/26 06:09:25;;;;;;;18.75;12.25;;;24.40;99.90;;;;;;5049936;28;20154;-84
2023/08/26 06:11:53;;;;;;;18.65;15.60;;;24.60;99.90;;;;;;5048529;28;20037;-86
2023/08/26 06:14:22;;;;;;;15.20;11.65;;;24.70;99.90;;;;;;5041177;28;20037;-85
2023/08/26 06:16:49;;;;;;;14.32;11.23;;;24.90;99.90;;;;;;5039167;28;20064;-86
2023/08/26 06:19:17;;;;;;;14.68;10.27;;;25.10;99.90;;;;;;5040193;28;20037;-82
2023/08/26 06:21:44;;;;;;;15.45;13.75;;;25.20;99.90;;;;;;5055550;28;20049;-85
2023/08/26 06:24:11;;;;;;;14.75;12.23;;;25.20;99.90;;;;;;5046945;28;20083;-85
2023/08/26 06:26:39;;;;;;;12.88;11.35;;;25.40;99.90;;;;;;5046431;28;20373;-85
2023/08/26 06:29:07;;;;;;;14.40;11.00;;;25.50;99.90;;;;;;5039664;28;20497;-86
2023/08/26 06:31:35;;;;;;;14.07;11.00;;;25.80;99.90;;;;;;5063550;28;20515;-86
2023/08/26 06:34:03;;;;;;;29.65;13.57;;;26.10;99.90;;;;;;5045747;28;20496;-86
2023/08/26 06:36:35;;;;;;;13.85;10.73;;;26.30;99.90;;;;;;5041613;28;20481;-85
2023/08/26 06:39:03;;;;;;;14.40;11.50;;;26.70;99.90;;;;;;5039002;28;20041;-85
2023/08/26 06:41:32;;;;;;;21.70;17.13;;;26.80;99.90;;;;;;5044064;28;20041;-86
2023/08/26 06:44:00;;;;;;;15.75;13.20;;;26.90;99.90;;;;;;5043033;28;20128;-85
2023/08/26 06:46:27;;;;;;;15.98;11.48;;;27.10;99.90;;;;;;5038172;28;20091;-86
2023/08/26 06:48:56;;;;;;;19.17;13.27;;;27.20;99.90;;;;;;5042995;28;20047;-86
2023/08/26 06:51:24;;;;;;;11.88;10.63;;;27.20;99.90;;;;;;5042749;28;20045;-87
2023/08/26 06:53:52;;;;;;;17.13;11.07;;;27.20;99.90;;;;;;5036044;28;20041;-85
2023/08/26 06:56:20;;;;;;;13.82;11.95;;;27.30;99.90;;;;;;5042808;28;20433;-86
2023/08/26 06:58:48;;;;;;;16.75;12.60;;;27.40;99.90;;;;;;5041805;28;20033;-86
2023/08/26 07:01:15;;;;;;;12.32;10.57;;;27.30;99.90;;;;;;5057184;28;20037;-85
2023/08/26 07:03:42;;;;;;;11.02;9.02;;;27.30;99.90;;;;;;5051777;28;20477;-85
2023/08/26 07:06:11;;;;;;;11.77;9.65;;;27.30;99.90;;;;;;5069150;28;20203;-85
2023/08/26 07:08:38;;;;;;;11.00;8.68;;;27.40;99.90;;;;;;5026373;28;20076;-85
2023/08/26 07:11:06;;;;;;;13.15;9.00;;;27.50;99.90;;;;;;5033140;28;20046;-84
2023/08/26 07:13:33;;;;;;;16.92;10.98;;;27.70;99.90;;;;;;5002210;28;20035;-86
2023/08/26 07:16:00;;;;;;;13.60;9.98;;;27.80;99.90;;;;;;4996821;28;20054;-87
2023/08/26 07:18:28;;;;;;;12.40;9.52;;;28.00;99.90;;;;;;5026908;28;20054;-87
2023/08/26 07:20:55;;;;;;;11.55;10.35;;;28.20;99.90;;;;;;5016688;28;20041;-86
2023/08/26 07:23:24;;;;;;;12.13;9.25;;;28.40;99.90;;;;;;5021360;28;20042;-85
2023/08/26 07:25:51;;;;;;;12.00;8.93;;;28.40;99.90;;;;;;5021449;28;20095;-86
2023/08/26 07:28:18;;;;;;;12.75;10.23;;;28.40;99.90;;;;;;5022812;28;20061;-85
2023/08/26 07:30:46;;;;;;;11.13;8.82;;;28.60;99.90;;;;;;5022504;28;20122;-85
2023/08/26 07:33:13;;;;;;;12.65;9.13;;;28.70;99.90;;;;;;5020213;28;20076;-86
2023/08/26 07:35:40;;;;;;;12.13;9.27;;;28.80;99.90;;;;;;5023450;28;20055;-87
2023/08/26 07:38:08;;;;;;;11.55;10.15;;;28.90;99.90;;;;;;5023535;28;20126;-87
2023/08/26 07:40:37;;;;;;;11.93;8.82;;;29.00;99.90;;;;;;5020594;28;20092;-87
2023/08/26 07:43:05;;;;;;;10.70;8.95;;;29.20;99.90;;;;;;5021156;28;20029;-87
2023/08/26 07:45:32;;;;;;;12.82;8.52;;;29.30;99.90;;;;;;5022635;28;20484;-87
2023/08/26 07:47:59;;;;;;;9.95;8.07;;;29.40;99.90;;;;;;5028639;28;20045;-85
2023/08/26 07:50:27;;;;;;;13.68;8.65;;;29.50;99.90;;;;;;5021933;28;20133;-85
2023/08/26 07:52:54;;;;;;;13.98;8.77;;;29.50;99.90;;;;;;5037739;28;20065;-85
2023/08/26 07:55:21;;;;;;;9.45;7.90;;;29.70;99.90;;;;;;5022295;28;20111;-87
2023/08/26 07:57:50;;;;;;;11.93;8.25;;;29.80;99.90;;;;;;5026310;28;20033;-87
2023/08/26 08:00:18;;;;;;;10.50;8.20;;;29.90;99.90;;;;;;5025437;28;20095;-86
2023/08/26 08:02:45;;;;;;;9.38;8.43;;;29.90;99.90;;;;;;5019085;28;20042;-86
2023/08/26 08:05:12;;;;;;;11.18;8.70;;;29.90;99.90;;;;;;5021100;28;20050;-86
2023/08/26 08:07:40;;;;;;;10.15;8.18;;;30.00;99.90;;;;;;5027940;28;20053;-86
2023/08/26 08:10:08;;;;;;;10.60;8.18;;;30.10;99.90;;;;;;5020785;28;20111;-85
2023/08/26 08:12:36;;;;;;;10.35;8.65;;;30.30;99.90;;;;;;5041315;28;20065;-85
2023/08/26 08:15:05;;;;;;;15.27;9.32;;;30.50;99.90;;;;;;5050538;28;20670;-87
2023/08/26 08:17:33;;;;;;;12.95;9.32;;;30.60;99.90;;;;;;5052662;28;20111;-84
2023/08/26 08:20:01;;;;;;;10.10;8.65;;;30.60;99.90;;;;;;5045741;28;20105;-87
2023/08/26 08:22:39;;;;;;;15.50;9.15;;;30.70;99.90;;;;;;5053456;28;20076;-84
2023/08/26 08:25:08;;;;;;;12.15;9.32;;;30.80;99.90;;;;;;5055287;28;20053;-87
2023/08/26 08:27:37;;;;;;;12.23;10.93;;;30.90;99.90;;;;;;5048794;28;20052;-86
2023/08/26 08:30:07;;;;;;;13.70;11.38;;;31.00;99.90;;;;;;5041462;28;20048;-86
2023/08/26 08:32:35;;;;;;;15.00;10.93;;;31.10;99.90;;;;;;5042758;28;20045;-86
2023/08/26 08:35:03;;;;;;;13.68;9.65;;;31.40;99.90;;;;;;5040594;28;20057;-87
2023/08/26 08:37:31;;;;;;;14.13;10.18;;;31.60;99.90;;;;;;5042554;28;20073;-88
2023/08/26 08:39:58;;;;;;;12.90;10.70;;;31.60;99.90;;;;;;5046159;28;20045;-86
2023/08/26 08:42:26;;;;;;;13.25;10.13;;;31.70;99.90;;;;;;5045554;28;20068;-85
2023/08/26 08:44:55;;;;;;;13.20;9.70;;;31.90;99.90;;;;;;5045109;28;20052;-85
2023/08/26 08:47:24;;;;;;;14.52;9.57;;;32.00;99.90;;;;;;5040082;28;20045;-87
2023/08/26 08:49:53;;;;;;;14.48;10.63;;;32.00;99.90;;;;;;5039441;28;20633;-87
2023/08/26 08:52:22;;;;;;;14.48;10.27;;;32.10;99.90;;;;;;5039672;28;20084;-86
2023/08/26 08:54:50;;;;;;;13.65;9.80;;;32.10;99.90;;;;;;5042816;28;20103;-86
2023/08/26 08:57:21;;;;;;;12.00;9.48;;;32.20;99.90;;;;;;5040535;28;20370;-86
2023/08/26 08:59:49;;;;;;;15.27;9.10;;;32.20;99.90;;;;;;5041523;28;20592;-86
2023/08/26 09:02:16;;;;;;;10.73;8.25;;;32.30;99.90;;;;;;5039142;28;20128;-85
2023/08/26 09:04:45;;;;;;;13.68;9.70;;;32.40;99.90;;;;;;5045924;28;20032;-85
2023/08/26 09:07:15;;;;;;;16.08;8.88;;;32.50;99.90;;;;;;5140232;22;20044;-79
2023/08/26 09:09:43;;;;;;;12.43;9.43;;;32.70;99.90;;;;;;5079094;28;20033;-79
2023/08/26 09:12:11;;;;;;;11.30;9.63;;;32.70;99.90;;;;;;5065951;28;20106;-78
2023/08/26 09:15:10;;;;;;;13.52;9.68;;;32.80;99.90;;;;;;5055753;28;20037;-81
2023/08/26 09:26:45;;;;;;;15.85;9.77;;;33.50;99.90;;;;;;5054368;28;20092;-79
